sensor_id;sensor_type;location;lat;lon;timestamp;P1;durP1;ratioP1;P2;durP2;ratioP2
4921;SDS011;16625;53.624;10.106;2023-10-13T00:01:09;10.27;;;3.20;;
4921;SDS011;16625;53.624;10.106;2023-10-13T00:03:38;14.03;;;4.40;;
4921;SDS011;16625;53.624;10.106;2023-10-13T00:06:06;6.50;;;3.60;;
4921;SDS011;16625;53.624;10.106;2023-10-13T00:08:33;6.40;;;3.63;;
4921;SDS011;16625;53.624;10.106;2023-10-13T00:11:05;12.90;;;4.20;;
4921;SDS011;16625;53.624;10.106;2023-10-13T00:13:34;12.27;;;3.80;;
4921;SDS011;16625;53.624;10.106;2023-10-13T00:16:08;19.83;;;5.23;;
4921;SDS011;16625;53.624;10.106;2023-10-13T00:18:43;11.10;;;3.83;;
4921;SDS011;16625;53.624;10.106;2023-10-13T00:21:11;12.77;;;3.43;;
4921;SDS011;16625;53.624;10.106;2023-10-13T00:23:45;12.10;;;4.60;;
4921;SDS011;16625;53.624;10.106;2023-10-13T00:26:18;12.50;;;3.50;;
4921;SDS011;16625;53.624;10.106;2023-10-13T00:28:49;11.83;;;3.73;;
4921;SDS011;16625;53.624;10.106;2023-10-13T00:31:24;13.20;;;3.73;;
4921;SDS011;16625;53.624;10.106;2023-10-13T00:33:58;11.83;;;5.00;;
4921;SDS011;16625;53.624;10.106;2023-10-13T00:36:34;17.03;;;4.73;;
4921;SDS011;16625;53.624;10.106;2023-10-13T00:39:01;16.73;;;5.00;;
4921;SDS011;16625;53.624;10.106;2023-10-13T00:41:32;17.83;;;4.73;;
4921;SDS011;16625;53.624;10.106;2023-10-13T00:44:15;10.37;;;4.60;;
4921;SDS011;16625;53.624;10.106;2023-10-13T00:46:42;11.67;;;4.70;;
4921;SDS011;16625;53.624;10.106;2023-10-13T00:49:11;11.80;;;4.50;;
4921;SDS011;16625;53.624;10.106;2023-10-13T00:51:41;15.70;;;4.93;;
4921;SDS011;16625;53.624;10.106;2023-10-13T00:54:12;21.93;;;5.60;;
4921;SDS011;16625;53.624;10.106;2023-10-13T00:56:42;15.33;;;5.23;;
4921;SDS011;16625;53.624;10.106;2023-10-13T00:59:22;11.60;;;5.50;;
4921;SDS011;16625;53.624;10.106;2023-10-13T01:01:50;10.10;;;6.10;;
4921;SDS011;16625;53.624;10.106;2023-10-13T01:04:22;18.10;;;5.90;;
4921;SDS011;16625;53.624;10.106;2023-10-13T01:06:53;26.73;;;6.67;;
4921;SDS011;16625;53.624;10.106;2023-10-13T01:09:19;20.63;;;6.27;;
4921;SDS011;16625;53.624;10.106;2023-10-13T01:11:50;12.93;;;6.90;;
4921;SDS011;16625;53.624;10.106;2023-10-13T01:14:17;12.87;;;5.90;;
4921;SDS011;16625;53.624;10.106;2023-10-13T01:16:45;22.63;;;7.20;;
4921;SDS011;16625;53.624;10.106;2023-10-13T01:19:12;18.63;;;6.80;;
4921;SDS011;16625;53.624;10.106;2023-10-13T01:21:44;16.20;;;6.83;;
4921;SDS011;16625;53.624;10.106;2023-10-13T01:24:14;12.47;;;6.30;;
4921;SDS011;16625;53.624;10.106;2023-10-13T01:26:42;21.53;;;8.53;;
4921;SDS011;16625;53.624;10.106;2023-10-13T01:29:08;20.63;;;7.70;;
4921;SDS011;16625;53.624;10.106;2023-10-13T01:31:40;17.60;;;8.03;;
4921;SDS011;16625;53.624;10.106;2023-10-13T01:34:11;19.60;;;8.17;;
4921;SDS011;16625;53.624;10.106;2023-10-13T01:36:39;17.37;;;7.13;;
4921;SDS011;16625;53.624;10.106;2023-10-13T01:39:09;19.73;;;6.80;;
4921;SDS011;16625;53.624;10.106;2023-10-13T01:41:37;25.50;;;7.80;;
4921;SDS011;16625;53.624;10.106;2023-10-13T01:44:05;19.67;;;9.47;;
4921;SDS011;16625;53.624;10.106;2023-10-13T01:46:31;30.03;;;10.37;;
4921;SDS011;16625;53.624;10.106;2023-10-13T01:49:02;24.33;;;9.70;;
4921;SDS011;16625;53.624;10.106;2023-10-13T01:51:28;18.03;;;8.60;;
4921;SDS011;16625;53.624;10.106;2023-10-13T01:53:55;21.80;;;7.97;;
4921;SDS011;16625;53.624;10.106;2023-10-13T01:56:21;30.10;;;11.50;;
4921;SDS011;16625;53.624;10.106;2023-10-13T01:58:51;28.53;;;10.20;;
4921;SDS011;16625;53.624;10.106;2023-10-13T02:01:18;24.23;;;9.80;;
4921;SDS011;16625;53.624;10.106;2023-10-13T02:03:52;28.77;;;10.80;;
4921;SDS011;16625;53.624;10.106;2023-10-13T02:06:27;24.27;;;12.10;;
4921;SDS011;16625;53.624;10.106;2023-10-13T02:08:58;30.17;;;10.60;;
4921;SDS011;16625;53.624;10.106;2023-10-13T02:11:36;32.13;;;11.50;;
4921;SDS011;16625;53.624;10.106;2023-10-13T02:14:05;28.50;;;11.40;;
4921;SDS011;16625;53.624;10.106;2023-10-13T02:16:31;43.43;;;11.90;;
4921;SDS011;16625;53.624;10.106;2023-10-13T02:19:02;39.60;;;12.90;;
4921;SDS011;16625;53.624;10.106;2023-10-13T02:21:29;40.40;;;13.27;;
4921;SDS011;16625;53.624;10.106;2023-10-13T02:23:58;34.57;;;12.37;;
4921;SDS011;16625;53.624;10.106;2023-10-13T02:26:29;43.93;;;14.00;;
4921;SDS011;16625;53.624;10.106;2023-10-13T02:28:57;39.23;;;14.00;;
4921;SDS011;16625;53.624;10.106;2023-10-13T02:31:28;42.70;;;12.90;;
4921;SDS011;16625;53.624;10.106;2023-10-13T02:33:55;36.73;;;13.53;;
4921;SDS011;16625;53.624;10.106;2023-10-13T02:36:21;48.13;;;14.37;;
4921;SDS011;16625;53.624;10.106;2023-10-13T02:39:01;47.43;;;14.50;;
4921;SDS011;16625;53.624;10.106;2023-10-13T02:41:32;41.03;;;13.47;;
4921;SDS011;16625;53.624;10.106;2023-10-13T02:44:02;34.93;;;12.73;;
4921;SDS011;16625;53.624;10.106;2023-10-13T02:46:32;51.73;;;16.70;;
4921;SDS011;16625;53.624;10.106;2023-10-13T02:49:04;37.33;;;14.33;;
4921;SDS011;16625;53.624;10.106;2023-10-13T02:51:35;50.23;;;14.73;;
4921;SDS011;16625;53.624;10.106;2023-10-13T02:54:03;44.30;;;14.77;;
4921;SDS011;16625;53.624;10.106;2023-10-13T02:56:36;41.07;;;13.13;;
4921;SDS011;16625;53.624;10.106;2023-10-13T02:59:13;48.00;;;14.43;;
4921;SDS011;16625;53.624;10.106;2023-10-13T03:01:41;41.17;;;13.80;;
4921;SDS011;16625;53.624;10.106;2023-10-13T03:04:07;33.10;;;13.50;;
4921;SDS011;16625;53.624;10.106;2023-10-13T03:06:34;55.80;;;14.80;;
4921;SDS011;16625;53.624;10.106;2023-10-13T03:09:06;43.87;;;14.77;;
4921;SDS011;16625;53.624;10.106;2023-10-13T03:11:40;45.63;;;16.40;;
4921;SDS011;16625;53.624;10.106;2023-10-13T03:14:13;39.80;;;16.30;;
4921;SDS011;16625;53.624;10.106;2023-10-13T03:16:50;32.40;;;14.20;;
4921;SDS011;16625;53.624;10.106;2023-10-13T03:19:18;36.20;;;15.50;;
4921;SDS011;16625;53.624;10.106;2023-10-13T03:21:44;31.73;;;16.73;;
4921;SDS011;16625;53.624;10.106;2023-10-13T03:24:19;39.90;;;16.07;;
4921;SDS011;16625;53.624;10.106;2023-10-13T03:26:48;40.93;;;15.37;;
4921;SDS011;16625;53.624;10.106;2023-10-13T03:29:17;46.87;;;17.93;;
4921;SDS011;16625;53.624;10.106;2023-10-13T03:31:47;59.57;;;15.17;;
4921;SDS011;16625;53.624;10.106;2023-10-13T03:34:30;26.60;;;15.13;;
4921;SDS011;16625;53.624;10.106;2023-10-13T03:36:57;34.73;;;13.60;;
4921;SDS011;16625;53.624;10.106;2023-10-13T03:39:24;41.10;;;15.00;;
4921;SDS011;16625;53.624;10.106;2023-10-13T03:41:55;36.47;;;14.33;;
4921;SDS011;16625;53.624;10.106;2023-10-13T03:44:24;47.90;;;15.80;;
4921;SDS011;16625;53.624;10.106;2023-10-13T03:46:55;30.17;;;11.97;;
4921;SDS011;16625;53.624;10.106;2023-10-13T03:49:26;29.03;;;11.00;;
4921;SDS011;16625;53.624;10.106;2023-10-13T03:51:56;21.37;;;10.20;;
4921;SDS011;16625;53.624;10.106;2023-10-13T03:54:24;19.97;;;10.20;;
4921;SDS011;16625;53.624;10.106;2023-10-13T03:56:55;19.87;;;9.60;;
4921;SDS011;16625;53.624;10.106;2023-10-13T03:59:22;18.30;;;8.67;;
4921;SDS011;16625;53.624;10.106;2023-10-13T04:01:49;17.97;;;7.73;;
4921;SDS011;16625;53.624;10.106;2023-10-13T04:04:24;16.13;;;7.97;;
4921;SDS011;16625;53.624;10.106;2023-10-13T04:07:12;12.93;;;8.00;;
4921;SDS011;16625;53.624;10.106;2023-10-13T04:09:59;17.37;;;8.17;;
4921;SDS011;16625;53.624;10.106;2023-10-13T04:13:01;19.17;;;7.80;;
4921;SDS011;16625;53.624;10.106;2023-10-13T04:15:50;19.00;;;8.03;;
4921;SDS011;16625;53.624;10.106;2023-10-13T04:18:59;20.67;;;8.20;;
4921;SDS011;16625;53.624;10.106;2023-10-13T04:21:34;24.13;;;10.10;;
4921;SDS011;16625;53.624;10.106;2023-10-13T04:24:22;21.70;;;8.53;;
4921;SDS011;16625;53.624;10.106;2023-10-13T04:27:24;22.33;;;11.23;;
4921;SDS011;16625;53.624;10.106;2023-10-13T04:30:18;25.93;;;11.43;;
4921;SDS011;16625;53.624;10.106;2023-10-13T04:32:51;31.97;;;12.40;;
4921;SDS011;16625;53.624;10.106;2023-10-13T04:36:00;29.13;;;12.20;;
4921;SDS011;16625;53.624;10.106;2023-10-13T04:38:38;23.20;;;12.23;;
4921;SDS011;16625;53.624;10.106;2023-10-13T04:41:23;24.80;;;11.33;;
4921;SDS011;16625;53.624;10.106;2023-10-13T04:43:50;33.50;;;15.47;;
4921;SDS011;16625;53.624;10.106;2023-10-13T04:46:29;32.03;;;14.67;;
4921;SDS011;16625;53.624;10.106;2023-10-13T04:49:19;40.20;;;15.90;;
4921;SDS011;16625;53.624;10.106;2023-10-13T04:51:54;34.37;;;14.20;;
4921;SDS011;16625;53.624;10.106;2023-10-13T04:54:24;32.73;;;14.40;;
4921;SDS011;16625;53.624;10.106;2023-10-13T04:57:11;33.53;;;15.37;;
4921;SDS011;16625;53.624;10.106;2023-10-13T04:59:49;30.67;;;16.80;;
4921;SDS011;16625;53.624;10.106;2023-10-13T05:02:34;35.53;;;15.30;;
4921;SDS011;16625;53.624;10.106;2023-10-13T05:05:42;37.97;;;17.20;;
4921;SDS011;16625;53.624;10.106;2023-10-13T05:08:31;40.97;;;16.37;;
4921;SDS011;16625;53.624;10.106;2023-10-13T05:11:16;48.60;;;18.10;;
4921;SDS011;16625;53.624;10.106;2023-10-13T05:14:01;39.47;;;16.20;;
4921;SDS011;16625;53.624;10.106;2023-10-13T05:16:45;41.93;;;18.37;;
4921;SDS011;16625;53.624;10.106;2023-10-13T05:19:30;50.33;;;19.30;;
4921;SDS011;16625;53.624;10.106;2023-10-13T05:22:14;61.40;;;19.97;;
4921;SDS011;16625;53.624;10.106;2023-10-13T05:24:58;53.20;;;21.30;;
4921;SDS011;16625;53.624;10.106;2023-10-13T05:27:43;48.67;;;19.97;;
4921;SDS011;16625;53.624;10.106;2023-10-13T05:30:28;51.20;;;20.97;;
4921;SDS011;16625;53.624;10.106;2023-10-13T05:33:13;53.27;;;22.80;;
4921;SDS011;16625;53.624;10.106;2023-10-13T05:35:57;51.97;;;21.60;;
4921;SDS011;16625;53.624;10.106;2023-10-13T05:38:41;52.87;;;23.43;;
4921;SDS011;16625;53.624;10.106;2023-10-13T05:41:37;61.23;;;21.87;;
4921;SDS011;16625;53.624;10.106;2023-10-13T05:44:21;57.83;;;22.97;;
4921;SDS011;16625;53.624;10.106;2023-10-13T05:47:19;49.03;;;22.40;;
4921;SDS011;16625;53.624;10.106;2023-10-13T05:50:12;50.40;;;22.47;;
4921;SDS011;16625;53.624;10.106;2023-10-13T05:52:54;64.47;;;22.43;;
4921;SDS011;16625;53.624;10.106;2023-10-13T05:55:39;68.17;;;23.40;;
4921;SDS011;16625;53.624;10.106;2023-10-13T05:58:23;51.33;;;23.30;;
4921;SDS011;16625;53.624;10.106;2023-10-13T06:01:11;66.17;;;23.00;;
4921;SDS011;16625;53.624;10.106;2023-10-13T06:03:58;63.73;;;23.73;;
4921;SDS011;16625;53.624;10.106;2023-10-13T06:06:42;64.80;;;25.37;;
4921;SDS011;16625;53.624;10.106;2023-10-13T06:09:26;58.90;;;24.07;;
4921;SDS011;16625;53.624;10.106;2023-10-13T06:12:10;60.20;;;22.10;;
4921;SDS011;16625;53.624;10.106;2023-10-13T06:14:54;68.40;;;26.00;;
4921;SDS011;16625;53.624;10.106;2023-10-13T06:17:39;63.80;;;26.97;;
4921;SDS011;16625;53.624;10.106;2023-10-13T06:26:40;70.47;;;27.90;;
4921;SDS011;16625;53.624;10.106;2023-10-13T06:29:25;75.23;;;30.10;;
4921;SDS011;16625;53.624;10.106;2023-10-13T06:31:54;69.47;;;28.80;;
4921;SDS011;16625;53.624;10.106;2023-10-13T06:34:34;64.03;;;28.07;;
4921;SDS011;16625;53.624;10.106;2023-10-13T06:37:19;65.43;;;28.43;;
4921;SDS011;16625;53.624;10.106;2023-10-13T06:39:53;71.90;;;31.77;;
4921;SDS011;16625;53.624;10.106;2023-10-13T06:42:21;84.63;;;33.57;;
4921;SDS011;16625;53.624;10.106;2023-10-13T06:44:52;87.67;;;31.20;;
4921;SDS011;16625;53.624;10.106;2023-10-13T06:47:20;73.93;;;28.67;;
4921;SDS011;16625;53.624;10.106;2023-10-13T06:49:47;89.33;;;32.27;;
4921;SDS011;16625;53.624;10.106;2023-10-13T06:52:16;74.37;;;31.67;;
4921;SDS011;16625;53.624;10.106;2023-10-13T06:54:43;79.17;;;33.80;;
4921;SDS011;16625;53.624;10.106;2023-10-13T06:57:13;80.50;;;34.90;;
4921;SDS011;16625;53.624;10.106;2023-10-13T06:59:45;78.23;;;33.50;;
4921;SDS011;16625;53.624;10.106;2023-10-13T07:02:12;73.63;;;31.60;;
4921;SDS011;16625;53.624;10.106;2023-10-13T07:04:46;79.27;;;33.70;;
4921;SDS011;16625;53.624;10.106;2023-10-13T07:07:13;71.67;;;30.63;;
4921;SDS011;16625;53.624;10.106;2023-10-13T07:09:40;84.23;;;34.53;;
4921;SDS011;16625;53.624;10.106;2023-10-13T07:12:16;87.10;;;34.30;;
4921;SDS011;16625;53.624;10.106;2023-10-13T07:14:47;69.87;;;32.57;;
4921;SDS011;16625;53.624;10.106;2023-10-13T07:17:18;73.50;;;31.80;;
4921;SDS011;16625;53.624;10.106;2023-10-13T07:19:51;89.17;;;36.93;;
4921;SDS011;16625;53.624;10.106;2023-10-13T07:22:31;78.20;;;34.63;;
4921;SDS011;16625;53.624;10.106;2023-10-13T07:25:05;82.43;;;37.10;;
4921;SDS011;16625;53.624;10.106;2023-10-13T07:27:34;76.13;;;35.00;;
4921;SDS011;16625;53.624;10.106;2023-10-13T07:30:01;91.83;;;35.43;;
4921;SDS011;16625;53.624;10.106;2023-10-13T07:32:38;76.37;;;34.80;;
4921;SDS011;16625;53.624;10.106;2023-10-13T07:35:10;78.20;;;34.07;;
4921;SDS011;16625;53.624;10.106;2023-10-13T07:37:38;79.47;;;34.80;;
4921;SDS011;16625;53.624;10.106;2023-10-13T07:40:08;79.80;;;35.70;;
4921;SDS011;16625;53.624;10.106;2023-10-13T07:42:54;75.20;;;34.37;;
4921;SDS011;16625;53.624;10.106;2023-10-13T07:45:26;73.70;;;33.87;;
4921;SDS011;16625;53.624;10.106;2023-10-13T07:48:01;76.37;;;33.50;;
4921;SDS011;16625;53.624;10.106;2023-10-13T07:50:32;63.40;;;30.63;;
4921;SDS011;16625;53.624;10.106;2023-10-13T07:53:00;69.57;;;33.13;;
4921;SDS011;16625;53.624;10.106;2023-10-13T07:55:39;82.17;;;33.90;;
4921;SDS011;16625;53.624;10.106;2023-10-13T07:58:08;72.80;;;30.10;;
4921;SDS011;16625;53.624;10.106;2023-10-13T08:00:35;63.63;;;29.10;;
4921;SDS011;16625;53.624;10.106;2023-10-13T08:03:18;59.70;;;28.43;;
4921;SDS011;16625;53.624;10.106;2023-10-13T08:05:59;55.87;;;27.30;;
4921;SDS011;16625;53.624;10.106;2023-10-13T08:08:31;59.77;;;27.13;;
4921;SDS011;16625;53.624;10.106;2023-10-13T08:11:10;54.33;;;26.50;;
4921;SDS011;16625;53.624;10.106;2023-10-13T08:13:51;53.83;;;24.53;;
4921;SDS011;16625;53.624;10.106;2023-10-13T08:16:21;45.23;;;24.20;;
4921;SDS011;16625;53.624;10.106;2023-10-13T08:18:49;45.73;;;24.57;;
4921;SDS011;16625;53.624;10.106;2023-10-13T08:21:16;46.17;;;23.13;;
4921;SDS011;16625;53.624;10.106;2023-10-13T08:23:48;43.07;;;21.90;;
4921;SDS011;16625;53.624;10.106;2023-10-13T08:26:31;42.40;;;21.67;;
4921;SDS011;16625;53.624;10.106;2023-10-13T08:29:14;43.00;;;22.30;;
4921;SDS011;16625;53.624;10.106;2023-10-13T08:31:57;31.17;;;17.83;;
4921;SDS011;16625;53.624;10.106;2023-10-13T08:34:50;39.90;;;21.50;;
4921;SDS011;16625;53.624;10.106;2023-10-13T08:37:34;40.27;;;20.30;;
4921;SDS011;16625;53.624;10.106;2023-10-13T08:40:12;38.63;;;19.47;;
4921;SDS011;16625;53.624;10.106;2023-10-13T08:43:02;34.70;;;20.57;;
4921;SDS011;16625;53.624;10.106;2023-10-13T08:45:38;28.93;;;17.30;;
4921;SDS011;16625;53.624;10.106;2023-10-13T08:48:31;35.57;;;19.27;;
4921;SDS011;16625;53.624;10.106;2023-10-13T08:51:00;35.13;;;19.03;;
4921;SDS011;16625;53.624;10.106;2023-10-13T08:53:56;29.40;;;17.80;;
4921;SDS011;16625;53.624;10.106;2023-10-13T08:56:33;31.37;;;17.53;;
4921;SDS011;16625;53.624;10.106;2023-10-13T08:59:12;28.77;;;16.40;;
4921;SDS011;16625;53.624;10.106;2023-10-13T09:01:49;33.50;;;18.70;;
4921;SDS011;16625;53.624;10.106;2023-10-13T09:04:25;22.40;;;13.67;;
4921;SDS011;16625;53.624;10.106;2023-10-13T09:06:53;28.50;;;15.67;;
4921;SDS011;16625;53.624;10.106;2023-10-13T09:09:33;25.30;;;15.43;;
4921;SDS011;16625;53.624;10.106;2023-10-13T09:12:25;26.37;;;15.90;;
4921;SDS011;16625;53.624;10.106;2023-10-13T09:15:28;30.90;;;15.20;;
4921;SDS011;16625;53.624;10.106;2023-10-13T09:18:24;21.27;;;13.97;;
4921;SDS011;16625;53.624;10.106;2023-10-13T09:21:14;21.07;;;14.20;;
4921;SDS011;16625;53.624;10.106;2023-10-13T09:23:59;22.70;;;14.13;;
4921;SDS011;16625;53.624;10.106;2023-10-13T09:26:43;20.53;;;13.40;;
4921;SDS011;16625;53.624;10.106;2023-10-13T09:29:15;17.80;;;12.47;;
4921;SDS011;16625;53.624;10.106;2023-10-13T09:31:44;25.40;;;12.70;;
4921;SDS011;16625;53.624;10.106;2023-10-13T09:34:21;18.73;;;11.90;;
4921;SDS011;16625;53.624;10.106;2023-10-13T09:36:54;16.63;;;12.00;;
4921;SDS011;16625;53.624;10.106;2023-10-13T09:39:25;16.07;;;11.30;;
4921;SDS011;16625;53.624;10.106;2023-10-13T09:41:55;22.33;;;12.33;;
4921;SDS011;16625;53.624;10.106;2023-10-13T09:44:22;18.00;;;12.10;;
4921;SDS011;16625;53.624;10.106;2023-10-13T09:46:48;19.00;;;11.33;;
4921;SDS011;16625;53.624;10.106;2023-10-13T09:49:19;20.23;;;11.30;;
4921;SDS011;16625;53.624;10.106;2023-10-13T09:52:09;17.73;;;10.63;;
4921;SDS011;16625;53.624;10.106;2023-10-13T09:54:44;16.53;;;10.50;;
4921;SDS011;16625;53.624;10.106;2023-10-13T09:57:24;19.73;;;9.93;;
4921;SDS011;16625;53.624;10.106;2023-10-13T10:00:00;16.17;;;9.80;;
4921;SDS011;16625;53.624;10.106;2023-10-13T10:02:52;13.77;;;9.47;;
4921;SDS011;16625;53.624;10.106;2023-10-13T10:05:25;16.43;;;9.73;;
4921;SDS011;16625;53.624;10.106;2023-10-13T10:07:55;17.10;;;9.97;;
4921;SDS011;16625;53.624;10.106;2023-10-13T10:10:22;18.80;;;9.70;;
4921;SDS011;16625;53.624;10.106;2023-10-13T10:13:01;20.60;;;9.40;;
4921;SDS011;16625;53.624;10.106;2023-10-13T10:15:38;19.20;;;8.90;;
4921;SDS011;16625;53.624;10.106;2023-10-13T10:18:19;12.33;;;9.20;;
4921;SDS011;16625;53.624;10.106;2023-10-13T10:20:48;27.90;;;10.13;;
4921;SDS011;16625;53.624;10.106;2023-10-13T10:23:23;17.70;;;8.90;;
4921;SDS011;16625;53.624;10.106;2023-10-13T10:25:53;20.03;;;8.70;;
4921;SDS011;16625;53.624;10.106;2023-10-13T10:28:36;13.90;;;7.77;;
4921;SDS011;16625;53.624;10.106;2023-10-13T10:31:06;15.43;;;7.50;;
4921;SDS011;16625;53.624;10.106;2023-10-13T10:33:37;12.53;;;8.00;;
4921;SDS011;16625;53.624;10.106;2023-10-13T10:36:08;16.20;;;7.90;;
4921;SDS011;16625;53.624;10.106;2023-10-13T10:38:50;23.73;;;9.10;;
4921;SDS011;16625;53.624;10.106;2023-10-13T10:41:25;13.30;;;8.47;;
4921;SDS011;16625;53.624;10.106;2023-10-13T10:44:09;13.17;;;9.57;;
4921;SDS011;16625;53.624;10.106;2023-10-13T10:46:41;15.57;;;8.87;;
4921;SDS011;16625;53.624;10.106;2023-10-13T10:49:17;15.57;;;8.90;;
4921;SDS011;16625;53.624;10.106;2023-10-13T10:51:54;16.23;;;8.77;;
4921;SDS011;16625;53.624;10.106;2023-10-13T10:54:26;11.30;;;7.87;;
4921;SDS011;16625;53.624;10.106;2023-10-13T10:56:57;14.90;;;8.60;;
4921;SDS011;16625;53.624;10.106;2023-10-13T10:59:36;10.80;;;7.67;;
4921;SDS011;16625;53.624;10.106;2023-10-13T11:02:03;15.07;;;11.03;;
4921;SDS011;16625;53.624;10.106;2023-10-13T11:04:32;11.50;;;8.00;;
4921;SDS011;16625;53.624;10.106;2023-10-13T11:07:07;12.60;;;7.73;;
4921;SDS011;16625;53.624;10.106;2023-10-13T11:09:34;16.13;;;8.23;;
4921;SDS011;16625;53.624;10.106;2023-10-13T11:12:11;12.73;;;8.27;;
4921;SDS011;16625;53.624;10.106;2023-10-13T11:14:40;16.40;;;8.27;;
4921;SDS011;16625;53.624;10.106;2023-10-13T11:17:08;12.47;;;7.03;;
4921;SDS011;16625;53.624;10.106;2023-10-13T11:19:43;10.93;;;7.40;;
4921;SDS011;16625;53.624;10.106;2023-10-13T11:22:12;18.30;;;7.87;;
4921;SDS011;16625;53.624;10.106;2023-10-13T11:24:54;15.60;;;7.93;;
4921;SDS011;16625;53.624;10.106;2023-10-13T11:27:27;9.23;;;7.00;;
4921;SDS011;16625;53.624;10.106;2023-10-13T11:30:09;15.27;;;7.03;;
4921;SDS011;16625;53.624;10.106;2023-10-13T11:32:40;19.43;;;7.53;;
4921;SDS011;16625;53.624;10.106;2023-10-13T11:35:07;9.93;;;7.20;;
4921;SDS011;16625;53.624;10.106;2023-10-13T11:37:46;10.43;;;7.70;;
4921;SDS011;16625;53.624;10.106;2023-10-13T11:40:21;19.90;;;8.43;;
4921;SDS011;16625;53.624;10.106;2023-10-13T11:43:02;18.40;;;9.33;;
4921;SDS011;16625;53.624;10.106;2023-10-13T11:45:38;15.57;;;8.40;;
4921;SDS011;16625;53.624;10.106;2023-10-13T11:48:19;15.57;;;8.50;;
4921;SDS011;16625;53.624;10.106;2023-10-13T11:50:59;13.00;;;8.03;;
4921;SDS011;16625;53.624;10.106;2023-10-13T11:53:32;12.63;;;7.60;;
4921;SDS011;16625;53.624;10.106;2023-10-13T11:56:00;10.80;;;6.83;;
4921;SDS011;16625;53.624;10.106;2023-10-13T11:58:27;17.00;;;8.00;;
4921;SDS011;16625;53.624;10.106;2023-10-13T12:00:55;12.77;;;7.20;;
4921;SDS011;16625;53.624;10.106;2023-10-13T12:03:45;14.10;;;7.93;;
4921;SDS011;16625;53.624;10.106;2023-10-13T12:06:32;12.27;;;7.00;;
4921;SDS011;16625;53.624;10.106;2023-10-13T12:09:13;13.57;;;7.23;;
4921;SDS011;16625;53.624;10.106;2023-10-13T12:12:05;14.47;;;6.87;;
4921;SDS011;16625;53.624;10.106;2023-10-13T12:14:33;11.37;;;5.47;;
4921;SDS011;16625;53.624;10.106;2023-10-13T12:17:03;13.20;;;7.43;;
4921;SDS011;16625;53.624;10.106;2023-10-13T12:19:35;13.53;;;6.13;;
4921;SDS011;16625;53.624;10.106;2023-10-13T12:22:04;12.43;;;6.00;;
4921;SDS011;16625;53.624;10.106;2023-10-13T12:24:35;13.27;;;6.53;;
4921;SDS011;16625;53.624;10.106;2023-10-13T12:27:07;11.40;;;5.17;;
4921;SDS011;16625;53.624;10.106;2023-10-13T12:29:45;16.03;;;5.70;;
4921;SDS011;16625;53.624;10.106;2023-10-13T12:32:12;14.37;;;5.90;;
4921;SDS011;16625;53.624;10.106;2023-10-13T12:34:47;13.00;;;5.40;;
4921;SDS011;16625;53.624;10.106;2023-10-13T12:37:25;11.57;;;6.43;;
4921;SDS011;16625;53.624;10.106;2023-10-13T12:40:16;17.73;;;5.60;;
4921;SDS011;16625;53.624;10.106;2023-10-13T12:43:01;9.47;;;5.10;;
4921;SDS011;16625;53.624;10.106;2023-10-13T12:45:47;17.60;;;6.07;;
4921;SDS011;16625;53.624;10.106;2023-10-13T12:48:33;11.93;;;5.10;;
4921;SDS011;16625;53.624;10.106;2023-10-13T12:51:18;20.23;;;7.70;;
4921;SDS011;16625;53.624;10.106;2023-10-13T12:54:05;15.50;;;6.30;;
4921;SDS011;16625;53.624;10.106;2023-10-13T12:56:41;13.03;;;4.70;;
4921;SDS011;16625;53.624;10.106;2023-10-13T12:59:09;10.47;;;5.00;;
4921;SDS011;16625;53.624;10.106;2023-10-13T13:01:38;13.50;;;4.97;;
4921;SDS011;16625;53.624;10.106;2023-10-13T13:04:07;10.73;;;5.33;;
4921;SDS011;16625;53.624;10.106;2023-10-13T13:06:43;10.13;;;4.90;;
4921;SDS011;16625;53.624;10.106;2023-10-13T13:09:11;12.50;;;5.40;;
4921;SDS011;16625;53.624;10.106;2023-10-13T13:11:38;15.83;;;6.40;;
4921;SDS011;16625;53.624;10.106;2023-10-13T13:14:07;13.67;;;6.50;;
4921;SDS011;16625;53.624;10.106;2023-10-13T13:16:35;16.00;;;5.33;;
4921;SDS011;16625;53.624;10.106;2023-10-13T13:19:04;12.47;;;5.20;;
4921;SDS011;16625;53.624;10.106;2023-10-13T13:21:36;20.73;;;5.87;;
4921;SDS011;16625;53.624;10.106;2023-10-13T13:24:04;13.93;;;6.17;;
4921;SDS011;16625;53.624;10.106;2023-10-13T13:26:36;11.40;;;5.83;;
4921;SDS011;16625;53.624;10.106;2023-10-13T13:29:08;10.63;;;5.00;;
4921;SDS011;16625;53.624;10.106;2023-10-13T13:31:36;15.00;;;6.30;;
4921;SDS011;16625;53.624;10.106;2023-10-13T13:34:06;12.50;;;5.80;;
4921;SDS011;16625;53.624;10.106;2023-10-13T13:36:35;15.80;;;5.90;;
4921;SDS011;16625;53.624;10.106;2023-10-13T13:39:02;18.07;;;5.77;;
4921;SDS011;16625;53.624;10.106;2023-10-13T13:41:31;13.67;;;6.10;;
4921;SDS011;16625;53.624;10.106;2023-10-13T13:43:58;12.53;;;5.37;;
4921;SDS011;16625;53.624;10.106;2023-10-13T13:46:39;11.43;;;5.83;;
4921;SDS011;16625;53.624;10.106;2023-10-13T13:49:09;17.27;;;5.83;;
4921;SDS011;16625;53.624;10.106;2023-10-13T13:51:43;14.07;;;5.90;;
4921;SDS011;16625;53.624;10.106;2023-10-13T13:54:18;8.20;;;5.00;;
4921;SDS011;16625;53.624;10.106;2023-10-13T13:56:46;13.13;;;5.60;;
4921;SDS011;16625;53.624;10.106;2023-10-13T13:59:16;16.50;;;5.60;;
4921;SDS011;16625;53.624;10.106;2023-10-13T14:01:47;17.93;;;6.33;;
4921;SDS011;16625;53.624;10.106;2023-10-13T14:04:17;10.30;;;5.70;;
4921;SDS011;16625;53.624;10.106;2023-10-13T14:06:45;16.80;;;5.80;;
4921;SDS011;16625;53.624;10.106;2023-10-13T14:09:12;12.67;;;7.43;;
4921;SDS011;16625;53.624;10.106;2023-10-13T14:11:57;13.93;;;6.30;;
4921;SDS011;16625;53.624;10.106;2023-10-13T14:14:42;18.07;;;5.70;;
4921;SDS011;16625;53.624;10.106;2023-10-13T14:17:15;10.40;;;5.73;;
4921;SDS011;16625;53.624;10.106;2023-10-13T14:19:42;14.77;;;6.07;;
4921;SDS011;16625;53.624;10.106;2023-10-13T14:22:10;12.83;;;5.40;;
4921;SDS011;16625;53.624;10.106;2023-10-13T14:24:38;15.27;;;5.60;;
4921;SDS011;16625;53.624;10.106;2023-10-13T14:27:12;10.43;;;5.80;;
4921;SDS011;16625;53.624;10.106;2023-10-13T14:29:42;12.93;;;5.90;;
4921;SDS011;16625;53.624;10.106;2023-10-13T14:32:09;9.47;;;6.13;;
4921;SDS011;16625;53.624;10.106;2023-10-13T14:34:40;11.53;;;6.40;;
4921;SDS011;16625;53.624;10.106;2023-10-13T14:37:07;15.70;;;6.20;;
4921;SDS011;16625;53.624;10.106;2023-10-13T14:39:37;23.20;;;6.53;;
4921;SDS011;16625;53.624;10.106;2023-10-13T14:42:05;13.40;;;6.40;;
4921;SDS011;16625;53.624;10.106;2023-10-13T14:44:32;16.57;;;6.00;;
4921;SDS011;16625;53.624;10.106;2023-10-13T14:46:59;12.70;;;7.03;;
4921;SDS011;16625;53.624;10.106;2023-10-13T14:49:27;16.80;;;6.23;;
4921;SDS011;16625;53.624;10.106;2023-10-13T14:51:55;15.40;;;6.60;;
4921;SDS011;16625;53.624;10.106;2023-10-13T14:54:24;27.83;;;6.70;;
4921;SDS011;16625;53.624;10.106;2023-10-13T14:56:59;16.40;;;6.10;;
4921;SDS011;16625;53.624;10.106;2023-10-13T14:59:27;13.57;;;7.07;;
4921;SDS011;16625;53.624;10.106;2023-10-13T15:01:58;14.93;;;6.97;;
4921;SDS011;16625;53.624;10.106;2023-10-13T15:04:27;19.63;;;6.80;;
4921;SDS011;16625;53.624;10.106;2023-10-13T15:06:59;17.37;;;6.60;;
4921;SDS011;16625;53.624;10.106;2023-10-13T15:09:28;12.93;;;6.77;;
4921;SDS011;16625;53.624;10.106;2023-10-13T15:11:55;20.27;;;7.67;;
4921;SDS011;16625;53.624;10.106;2023-10-13T15:14:23;19.40;;;7.07;;
4921;SDS011;16625;53.624;10.106;2023-10-13T15:16:50;13.07;;;7.23;;
4921;SDS011;16625;53.624;10.106;2023-10-13T15:19:19;22.27;;;10.23;;